• Join FlightAware (Why Join?)
  • Login
  • US Flag 
08:34PM EDT


 

Airport Tracker/Info


-or-


 

Live Flight TrackerFlight Track Log ✈ N960DL ✈ 10-Jun-2013 ✈ KATL - KCLT

Flight Track Log - Related Links

Times and Time Zones

All times are in EDT time to prevent confusion due to time zone crossing. See the N960DL flight status page for this flight to view local times or setup timezone preferences in your user account.

Time Position Orientation Groundspeed Altitude Reporting Facility
EDT Latitude Longitude Course Direction KTS MPH feet Rate Location/Type
05:31PM 33.6333 -84.4667 64° Northeast 192 221 2,000  Level Atlanta TRACON
05:32PM 33.6167 -84.5333 253° West 237 273 3,400 2,100 Climbing Atlanta TRACON
05:33PM 33.6951 -83.9036 101° East  Level FlightAware Approximate
05:33PM 33.5667 -84.5833 220° Southwest 272 313 6,100  Level Atlanta TRACON
05:34PM 33.6662 -83.7308 101° East  Level FlightAware Approximate
05:34PM 33.4833 -84.5667 171° South 295 339 9,300  Level Atlanta TRACON
05:35PM 33.6782 -83.5644 64° Northeast  Level FlightAware Approximate
05:35PM 33.4575 -84.4122 101° East 347 399 12,300  Level Atlanta Center
05:36PM 33.7427 -83.4061 64° Northeast  Level FlightAware Approximate
05:36PM 33.4642 -84.2828 86° East 372 428 14,200  Level Atlanta Center
05:37PM 33.5103 -84.1533 67° East 394 453 15,800 1,500 Climbing Atlanta Center
05:38PM 33.5667 -84.0189 63° Northeast 424 488 17,300 1,680 Climbing Atlanta Center
05:39PM 33.6167 -83.8717 68° East 459 528 19,200 1,620 Climbing Atlanta Center
05:40PM 33.6478 -83.7119 77° East 479 551 20,600 1,260 Climbing Atlanta Center
05:41PM 33.6931 -83.5569 71° East 484 557 21,800 1,200 Climbing Atlanta Center
05:42PM 33.7550 -83.4017 64° Northeast 500 575 23,000 600 Climbing Atlanta Center
05:43PM 33.8167 -83.2536 63° Northeast 500 575 23,000 360 Level Atlanta Center
05:44PM 33.8764 -83.1056 64° Northeast 494 568 23,800 900 Climbing Atlanta Center
05:45PM 33.9375 -82.9447 65° Northeast 483 556 24,900 1,500 Climbing Atlanta Center
05:46PM 33.9967 -82.7986 64° Northeast 483 556 26,900 1,020 Climbing Atlanta Center
05:47PM 34.0494 -82.6600 65° Northeast 468 539 27,000  Climbing Atlanta Center
05:48PM 34.1042 -82.5236 64° Northeast 454 522 27,000 -660 Level Atlanta Center
05:49PM 34.1589 -82.4019 61° Northeast 449 517 25,700 -1,320 Descending Atlanta Center
05:50PM 34.2092 -82.2656 66° East 449 517 24,400 -1,320 Descending Atlanta Center
05:51PM 34.2828 -82.1608 50° Northeast 436 502 23,100 -1,500 Descending Atlanta Center
05:52PM 34.3828 -82.1358 12° North 363 418 21,400 -1,140 Descending Atlanta Center
05:53PM 34.4969 -82.1106 10° North 355 409 20,900 -1,200 Descending Atlanta Center
05:54PM 34.5947 -82.0858 12° North 361 415 19,100 -1,980 Descending Atlanta Center
05:55PM 34.6903 -82.0531 16° North 361 415 17,000 -2,220 Descending Atlanta Center
05:56PM 34.7472 -81.9608 53° Northeast 321 369 14,700 -2,100 Descending Atlanta Center
05:57PM 34.7494 -81.8494 89° East 295 339 12,800 -1,380 Descending Atlanta Center
05:58PM 34.7431 -81.7308 94° East 337 388 12,000 -420 Descending Atlanta Center
05:59PM 34.7347 -81.6200 95° East 323 372 12,000  Level Atlanta Center
06:00PM 34.7617 -81.5131 73° East 344 396 12,000  Level Atlanta Center
06:01PM 34.8186 -81.4378 47° Northeast 317 365 12,000  Level Atlanta Center
06:02PM 34.8978 -81.3367 46° Northeast 341 392 12,000  Level Atlanta Center
06:03PM 34.9483 -81.2664 49° Northeast 341 392 12,000 -720 Level Atlanta Center
06:04PM 35.0111 -81.1858 46° Northeast 335 386 10,700 -1,500 Descending Atlanta Center
06:05PM 35.0761 -81.1025 46° Northeast 335 386 9,100 -900 Descending Atlanta Center
06:06PM 35.1519 -81.0489 30° Northeast 313 360 9,000 -480 Descending Atlanta Center
06:07PM 35.2406 -81.0025 23° Northeast 266 306 8,200 -1,020 Descending Atlanta Center
06:08PM 35.2994 -80.9442 39° Northeast 271 312 6,900 -1,380 Descending Atlanta Center
06:09PM 35.3481 -80.8814 46° Northeast 266 306 5,600 -1,440 Descending Atlanta Center
06:10PM 35.3708 -80.7989 71° East 249 287 4,000 -840 Descending Atlanta Center
06:11PM 35.3347 -80.7775 154° Southeast 179 206 3,900 -120 Descending Atlanta Center